sensor_id;sensor_type;location;lat;lon;timestamp;pressure;altitude;pressure_sealevel;temperature;humidity
23339;BME280;11841;49.368;20.962;2022-08-07T00:00:13;96425.22;;;16.78;84.93
23339;BME280;11841;49.368;20.962;2022-08-07T00:02:43;96424.09;;;16.74;85.16
23339;BME280;11841;49.368;20.962;2022-08-07T00:05:10;96424.09;;;16.74;84.67
23339;BME280;11841;49.368;20.962;2022-08-07T00:07:37;96423.75;;;16.71;84.85
23339;BME280;11841;49.368;20.962;2022-08-07T00:10:07;96422.00;;;16.65;85.10
23339;BME280;11841;49.368;20.962;2022-08-07T00:12:53;96409.94;;;16.51;84.63
23339;BME280;11841;49.368;20.962;2022-08-07T00:15:26;96415.19;;;16.46;84.99
23339;BME280;11841;49.368;20.962;2022-08-07T00:18:13;96413.66;;;16.38;84.56
23339;BME280;11841;49.368;20.962;2022-08-07T00:20:46;96418.91;;;16.33;85.23
23339;BME280;11841;49.368;20.962;2022-08-07T00:23:14;96410.97;;;16.38;85.06
23339;BME280;11841;49.368;20.962;2022-08-07T00:25:42;96418.06;;;16.44;84.90
23339;BME280;11841;49.368;20.962;2022-08-07T00:28:17;96413.75;;;16.43;84.79
23339;BME280;11841;49.368;20.962;2022-08-07T00:30:47;96414.72;;;16.49;84.97
23339;BME280;11841;49.368;20.962;2022-08-07T00:33:14;96417.16;;;16.50;84.96
23339;BME280;11841;49.368;20.962;2022-08-07T00:35:41;96412.28;;;16.47;84.56
23339;BME280;11841;49.368;20.962;2022-08-07T00:38:14;96410.25;;;16.43;84.88
23339;BME280;11841;49.368;20.962;2022-08-07T00:40:57;96410.97;;;16.38;85.02
23339;BME280;11841;49.368;20.962;2022-08-07T00:43:23;96408.66;;;16.42;84.90
23339;BME280;11841;49.368;20.962;2022-08-07T00:46:10;96411.91;;;16.44;85.02
23339;BME280;11841;49.368;20.962;2022-08-07T00:48:36;96414.34;;;16.45;84.95
23339;BME280;11841;49.368;20.962;2022-08-07T00:51:08;96411.81;;;16.50;84.94
23339;BME280;11841;49.368;20.962;2022-08-07T00:53:35;96414.00;;;16.53;84.90
23339;BME280;11841;49.368;20.962;2022-08-07T00:56:16;96413.41;;;16.51;84.46
23339;BME280;11841;49.368;20.962;2022-08-07T00:58:43;96411.22;;;16.48;85.24
23339;BME280;11841;49.368;20.962;2022-08-07T01:01:16;96410.16;;;16.49;85.07
23339;BME280;11841;49.368;20.962;2022-08-07T01:03:43;96407.16;;;16.46;84.82
23339;BME280;11841;49.368;20.962;2022-08-07T01:06:26;96412.69;;;16.44;85.11
23339;BME280;11841;49.368;20.962;2022-08-07T01:08:53;96411.09;;;16.43;84.84
23339;BME280;11841;49.368;20.962;2022-08-07T01:11:21;96412.28;;;16.47;85.12
23339;BME280;11841;49.368;20.962;2022-08-07T01:14:08;96402.81;;;16.45;85.01
23339;BME280;11841;49.368;20.962;2022-08-07T01:16:35;96414.72;;;16.49;84.86
23339;BME280;11841;49.368;20.962;2022-08-07T01:19:03;96419.84;;;16.50;84.95
23339;BME280;11841;49.368;20.962;2022-08-07T01:21:44;96424.94;;;16.52;85.06
23339;BME280;11841;49.368;20.962;2022-08-07T01:24:12;96414.00;;;16.53;85.07
23339;BME280;11841;49.368;20.962;2022-08-07T01:26:44;96418.31;;;16.54;85.27
23339;BME280;11841;49.368;20.962;2022-08-07T01:29:18;96420.75;;;16.56;85.13
23339;BME280;11841;49.368;20.962;2022-08-07T01:31:45;96410.50;;;16.53;85.09
23339;BME280;11841;49.368;20.962;2022-08-07T01:34:14;96422.84;;;16.54;85.34
23339;BME280;11841;49.368;20.962;2022-08-07T01:36:45;96420.66;;;16.51;85.12
23339;BME280;11841;49.368;20.962;2022-08-07T01:39:26;96423.28;;;16.39;85.17
23339;BME280;11841;49.368;20.962;2022-08-07T01:42:15;96422.16;;;16.35;85.28
23339;BME280;11841;49.368;20.962;2022-08-07T01:45:03;96418.66;;;16.35;85.25
23339;BME280;11841;49.368;20.962;2022-08-07T01:47:41;96410.06;;;16.33;85.55
23339;BME280;11841;49.368;20.962;2022-08-07T01:50:28;96419.97;;;16.32;85.60
23339;BME280;11841;49.368;20.962;2022-08-07T01:52:57;96421.00;;;16.31;85.90
23339;BME280;11841;49.368;20.962;2022-08-07T01:55:27;96417.16;;;16.27;85.88
23339;BME280;11841;49.368;20.962;2022-08-07T01:57:59;96411.13;;;16.20;86.00
23339;BME280;11841;49.368;20.962;2022-08-07T02:00:55;96411.56;;;16.17;85.84
23339;BME280;11841;49.368;20.962;2022-08-07T02:03:46;96411.13;;;16.20;85.75
23339;BME280;11841;49.368;20.962;2022-08-07T02:06:18;96417.28;;;16.21;86.19
23339;BME280;11841;49.368;20.962;2022-08-07T02:08:59;96422.63;;;16.21;86.12
23339;BME280;11841;49.368;20.962;2022-08-07T02:11:34;96424.75;;;16.19;86.18
23339;BME280;11841;49.368;20.962;2022-08-07T02:14:23;96417.41;;;16.14;86.59
23339;BME280;11841;49.368;20.962;2022-08-07T02:17:07;96417.88;;;16.11;86.67
23339;BME280;11841;49.368;20.962;2022-08-07T02:19:38;96414.63;;;16.09;86.90
23339;BME280;11841;49.368;20.962;2022-08-07T02:22:28;96417.41;;;16.03;87.28
23339;BME280;11841;49.368;20.962;2022-08-07T02:24:56;96424.03;;;16.00;87.42
23339;BME280;11841;49.368;20.962;2022-08-07T02:27:25;96423.00;;;16.01;87.30
23339;BME280;11841;49.368;20.962;2022-08-07T02:30:00;96417.66;;;16.01;87.40
23339;BME280;11841;49.368;20.962;2022-08-07T02:32:32;96421.34;;;16.00;87.51
23339;BME280;11841;49.368;20.962;2022-08-07T02:35:06;96417.66;;;16.01;87.57
23339;BME280;11841;49.368;20.962;2022-08-07T02:37:38;96420.31;;;16.01;87.79
23339;BME280;11841;49.368;20.962;2022-08-07T02:40:10;96423.00;;;16.01;88.01
23339;BME280;11841;49.368;20.962;2022-08-07T02:42:58;96429.38;;;16.00;88.14
23339;BME280;11841;49.368;20.962;2022-08-07T02:45:27;96423.47;;;15.98;88.28
23339;BME280;11841;49.368;20.962;2022-08-07T02:48:14;96424.38;;;15.92;88.71
23339;BME280;11841;49.368;20.962;2022-08-07T02:50:43;96428.13;;;15.91;88.75
23339;BME280;11841;49.368;20.962;2022-08-07T02:53:23;96415.78;;;15.90;88.71
23339;BME280;11841;49.368;20.962;2022-08-07T02:55:55;96417.66;;;15.90;88.69
23339;BME280;11841;49.368;20.962;2022-08-07T02:58:31;96424.03;;;15.89;88.49
23339;BME280;11841;49.368;20.962;2022-08-07T03:01:01;96412.56;;;15.88;88.72
23339;BME280;11841;49.368;20.962;2022-08-07T03:03:31;96415.00;;;15.90;88.83
23339;BME280;11841;49.368;20.962;2022-08-07T03:06:17;96422.19;;;15.89;88.47
23339;BME280;11841;49.368;20.962;2022-08-07T03:09:00;96418.25;;;15.92;88.12
23339;BME280;11841;49.368;20.962;2022-08-07T03:11:28;96423.91;;;15.84;87.91
23339;BME280;11841;49.368;20.962;2022-08-07T03:13:58;96421.72;;;15.81;88.11
23339;BME280;11841;49.368;20.962;2022-08-07T03:16:29;96420.66;;;15.82;87.91
23339;BME280;11841;49.368;20.962;2022-08-07T03:18:57;96421.00;;;15.85;87.97
23339;BME280;11841;49.368;20.962;2022-08-07T03:21:24;96419.28;;;15.91;88.08
23339;BME280;11841;49.368;20.962;2022-08-07T03:23:54;96414.88;;;15.96;87.89
23339;BME280;11841;49.368;20.962;2022-08-07T03:26:41;96418.13;;;15.98;87.97
23339;BME280;11841;49.368;20.962;2022-08-07T03:29:27;96424.38;;;15.92;87.84
23339;BME280;11841;49.368;20.962;2022-08-07T03:31:55;96430.69;;;15.86;88.14
23339;BME280;11841;49.368;20.962;2022-08-07T03:34:23;96432.28;;;15.87;88.04
23339;BME280;11841;49.368;20.962;2022-08-07T03:36:53;96426.03;;;15.93;87.97
23339;BME280;11841;49.368;20.962;2022-08-07T03:39:24;96437.88;;;15.97;87.95
23339;BME280;11841;49.368;20.962;2022-08-07T03:42:12;96440.91;;;16.01;87.74
23339;BME280;11841;49.368;20.962;2022-08-07T03:44:39;96445.44;;;16.00;87.65
23339;BME280;11841;49.368;20.962;2022-08-07T03:47:07;96441.13;;;15.99;87.78
23339;BME280;11841;49.368;20.962;2022-08-07T03:49:41;96446.50;;;15.99;88.07
23339;BME280;11841;49.368;20.962;2022-08-07T03:52:21;96443.34;;;16.02;87.88
23339;BME280;11841;49.368;20.962;2022-08-07T03:54:53;96444.28;;;16.08;87.68
23339;BME280;11841;49.368;20.962;2022-08-07T03:57:31;96459.50;;;16.07;87.63
23339;BME280;11841;49.368;20.962;2022-08-07T04:00:18;96452.19;;;16.03;87.79
23339;BME280;11841;49.368;20.962;2022-08-07T04:02:54;96456.28;;;16.05;88.17
23339;BME280;11841;49.368;20.962;2022-08-07T04:05:22;96461.16;;;16.08;88.24
23339;BME280;11841;49.368;20.962;2022-08-07T04:08:05;96456.16;;;16.12;88.42
23339;BME280;11841;49.368;20.962;2022-08-07T04:10:36;96458.94;;;16.05;87.85
23339;BME280;11841;49.368;20.962;2022-08-07T04:13:04;96453.00;;;16.03;87.45
23339;BME280;11841;49.368;20.962;2022-08-07T04:15:41;96451.38;;;16.02;87.55
23339;BME280;11841;49.368;20.962;2022-08-07T04:18:10;96449.88;;;16.06;87.46
23339;BME280;11841;49.368;20.962;2022-08-07T04:20:57;96446.47;;;16.11;87.53
23339;BME280;11841;49.368;20.962;2022-08-07T04:23:25;96447.66;;;16.15;87.41
23339;BME280;11841;49.368;20.962;2022-08-07T04:26:13;96453.94;;;16.20;87.45
23339;BME280;11841;49.368;20.962;2022-08-07T04:28:47;96451.81;;;16.22;87.45
23339;BME280;11841;49.368;20.962;2022-08-07T04:31:14;96454.06;;;16.25;87.37
23339;BME280;11841;49.368;20.962;2022-08-07T04:34:01;96450.78;;;16.23;87.43
23339;BME280;11841;49.368;20.962;2022-08-07T04:36:28;96451.81;;;16.22;87.77
23339;BME280;11841;49.368;20.962;2022-08-07T04:38:55;96451.38;;;16.25;87.55
23339;BME280;11841;49.368;20.962;2022-08-07T04:41:23;96462.09;;;16.25;87.39
23339;BME280;11841;49.368;20.962;2022-08-07T04:43:54;96457.16;;;16.22;87.64
23339;BME280;11841;49.368;20.962;2022-08-07T04:46:59;96462.66;;;16.16;87.26
23339;BME280;11841;49.368;20.962;2022-08-07T04:49:48;96460.56;;;16.18;87.26
23339;BME280;11841;49.368;20.962;2022-08-07T04:55:54;96463.13;;;16.13;87.54
23339;BME280;11841;49.368;20.962;2022-08-07T04:58:41;96460.44;;;16.13;87.12
23339;BME280;11841;49.368;20.962;2022-08-07T05:01:36;96463.47;;;16.16;86.97
23339;BME280;11841;49.368;20.962;2022-08-07T05:04:15;96462.66;;;16.16;86.75
23339;BME280;11841;49.368;20.962;2022-08-07T05:06:54;96458.13;;;16.16;86.68
23339;BME280;11841;49.368;20.962;2022-08-07T05:09:31;96466.72;;;16.18;86.73
23339;BME280;11841;49.368;20.962;2022-08-07T05:12:17;96472.09;;;16.18;86.27
23339;BME280;11841;49.368;20.962;2022-08-07T05:14:59;96467.75;;;16.17;86.43
23339;BME280;11841;49.368;20.962;2022-08-07T05:17:31;96472.09;;;16.18;86.39
23339;BME280;11841;49.368;20.962;2022-08-07T05:20:20;96482.31;;;16.21;86.19
23339;BME280;11841;49.368;20.962;2022-08-07T05:22:55;96477.44;;;16.18;86.52
23339;BME280;11841;49.368;20.962;2022-08-07T05:25:23;96476.97;;;16.21;86.40
23339;BME280;11841;49.368;20.962;2022-08-07T05:28:13;96474.88;;;16.23;86.21
23339;BME280;11841;49.368;20.962;2022-08-07T05:30:50;96488.38;;;16.28;85.80
23339;BME280;11841;49.368;20.962;2022-08-07T05:33:18;96477.19;;;16.20;85.04
23339;BME280;11841;49.368;20.962;2022-08-07T05:35:48;96487.44;;;16.11;85.28
23339;BME280;11841;49.368;20.962;2022-08-07T05:38:17;96494.16;;;16.14;85.68
23339;BME280;11841;49.368;20.962;2022-08-07T05:41:06;96487.53;;;16.16;86.49
23339;BME280;11841;49.368;20.962;2022-08-07T05:43:43;96493.00;;;16.21;85.79
23339;BME280;11841;49.368;20.962;2022-08-07T05:46:32;96489.97;;;16.29;85.53
23339;BME280;11841;49.368;20.962;2022-08-07T05:49:00;96501.03;;;16.33;85.52
23339;BME280;11841;49.368;20.962;2022-08-07T05:51:37;96488.25;;;16.35;85.16
23339;BME280;11841;49.368;20.962;2022-08-07T05:54:07;96483.72;;;16.35;84.93
23339;BME280;11841;49.368;20.962;2022-08-07T05:56:54;96478.34;;;16.35;85.10
23339;BME280;11841;49.368;20.962;2022-08-07T05:59:24;96482.41;;;16.38;84.18
23339;BME280;11841;49.368;20.962;2022-08-07T06:01:53;96483.47;;;16.37;84.15
23339;BME280;11841;49.368;20.962;2022-08-07T06:04:23;96484.84;;;16.39;84.29
23339;BME280;11841;49.368;20.962;2022-08-07T06:06:56;96476.75;;;16.46;84.37
23339;BME280;11841;49.368;20.962;2022-08-07T06:09:32;96485.78;;;16.45;84.47
23339;BME280;11841;49.368;20.962;2022-08-07T06:12:19;96487.09;;;16.42;83.41
23339;BME280;11841;49.368;20.962;2022-08-07T06:14:57;96484.06;;;16.39;83.98
23339;BME280;11841;49.368;20.962;2022-08-07T06:17:31;96478.56;;;16.45;83.69
23339;BME280;11841;49.368;20.962;2022-08-07T06:20:04;96481.88;;;16.47;83.39
23339;BME280;11841;49.368;20.962;2022-08-07T06:22:31;96489.28;;;16.45;83.02
23339;BME280;11841;49.368;20.962;2022-08-07T06:25:05;96495.13;;;16.42;83.34
23339;BME280;11841;49.368;20.962;2022-08-07T06:27:35;96493.59;;;16.46;83.80
23339;BME280;11841;49.368;20.962;2022-08-07T06:30:22;96490.47;;;16.49;83.34
23339;BME280;11841;49.368;20.962;2022-08-07T06:33:00;96487.09;;;16.54;82.82
23339;BME280;11841;49.368;20.962;2022-08-07T06:35:29;96495.13;;;16.54;81.88
23339;BME280;11841;49.368;20.962;2022-08-07T06:38:12;96486.59;;;16.45;80.63
23339;BME280;11841;49.368;20.962;2022-08-07T06:40:49;96497.94;;;16.47;80.78
23339;BME280;11841;49.368;20.962;2022-08-07T06:43:19;96483.00;;;16.51;81.40
23339;BME280;11841;49.368;20.962;2022-08-07T06:45:47;96485.44;;;16.53;80.27
23339;BME280;11841;49.368;20.962;2022-08-07T06:48:14;96496.88;;;16.48;80.26
23339;BME280;11841;49.368;20.962;2022-08-07T06:50:50;96490.81;;;16.53;80.25
23339;BME280;11841;49.368;20.962;2022-08-07T06:53:20;96489.53;;;16.55;80.44
23339;BME280;11841;49.368;20.962;2022-08-07T06:56:08;96483.72;;;16.58;80.91
23339;BME280;11841;49.368;20.962;2022-08-07T06:58:42;96484.97;;;16.67;80.57
23339;BME280;11841;49.368;20.962;2022-08-07T07:01:30;96481.81;;;16.70;78.95
23339;BME280;11841;49.368;20.962;2022-08-07T07:04:16;96490.44;;;16.72;79.47
23339;BME280;11841;49.368;20.962;2022-08-07T07:07:00;96483.00;;;16.74;79.11
23339;BME280;11841;49.368;20.962;2022-08-07T07:09:48;96487.03;;;16.77;78.99
23339;BME280;11841;49.368;20.962;2022-08-07T07:15:29;96482.84;;;16.81;78.00
23339;BME280;11841;49.368;20.962;2022-08-07T07:21:14;96483.97;;;16.97;75.98
23339;BME280;11841;49.368;20.962;2022-08-07T07:23:46;96481.66;;;17.00;76.81
23339;BME280;11841;49.368;20.962;2022-08-07T07:26:33;96480.44;;;17.08;75.31
23339;BME280;11841;49.368;20.962;2022-08-07T07:29:07;96477.75;;;17.08;74.67
23339;BME280;11841;49.368;20.962;2022-08-07T07:31:56;96481.84;;;17.10;74.86
23339;BME280;11841;49.368;20.962;2022-08-07T07:34:27;96473.72;;;17.05;74.25
23339;BME280;11841;49.368;20.962;2022-08-07T07:37:02;96470.88;;;17.12;75.04
23339;BME280;11841;49.368;20.962;2022-08-07T07:39:49;96480.72;;;17.23;74.63
23339;BME280;11841;49.368;20.962;2022-08-07T07:42:22;96473.25;;;17.25;73.97
23339;BME280;11841;49.368;20.962;2022-08-07T07:45:03;96469.53;;;17.26;72.83
23339;BME280;11841;49.368;20.962;2022-08-07T07:47:33;96469.06;;;17.29;72.62
23339;BME280;11841;49.368;20.962;2022-08-07T07:50:19;96476.94;;;17.35;73.37
23339;BME280;11841;49.368;20.962;2022-08-07T07:53:04;96472.50;;;17.41;72.67
23339;BME280;11841;49.368;20.962;2022-08-07T07:55:46;96476.91;;;17.47;73.11
23339;BME280;11841;49.368;20.962;2022-08-07T07:58:25;96468.97;;;17.52;71.61
23339;BME280;11841;49.368;20.962;2022-08-07T08:00:56;96480.19;;;17.49;70.57
23339;BME280;11841;49.368;20.962;2022-08-07T08:03:25;96478.66;;;17.53;71.80
23339;BME280;11841;49.368;20.962;2022-08-07T08:06:14;96468.03;;;17.58;71.66
23339;BME280;11841;49.368;20.962;2022-08-07T08:08:43;96479.88;;;17.62;72.02
23339;BME280;11841;49.368;20.962;2022-08-07T08:11:13;96472.50;;;17.69;72.27
23339;BME280;11841;49.368;20.962;2022-08-07T08:14:01;96474.28;;;17.80;72.79
23339;BME280;11841;49.368;20.962;2022-08-07T08:16:33;96470.47;;;17.92;71.88
23339;BME280;11841;49.368;20.962;2022-08-07T08:19:01;96482.59;;;17.95;69.54
23339;BME280;11841;49.368;20.962;2022-08-07T08:21:49;96485.59;;;17.98;70.39
23339;BME280;11841;49.368;20.962;2022-08-07T08:24:40;96482.66;;;18.00;68.32
23339;BME280;11841;49.368;20.962;2022-08-07T08:27:50;96481.03;;;17.99;69.16
23339;BME280;11841;49.368;20.962;2022-08-07T08:30:28;96478.75;;;18.07;69.97
23339;BME280;11841;49.368;20.962;2022-08-07T08:32:58;96476.47;;;18.16;69.36
23339;BME280;11841;49.368;20.962;2022-08-07T08:35:30;96473.22;;;18.31;69.30
23339;BME280;11841;49.368;20.962;2022-08-07T08:38:14;96483.13;;;18.30;66.93
23339;BME280;11841;49.368;20.962;2022-08-07T08:40:50;96487.34;;;18.26;67.20
23339;BME280;11841;49.368;20.962;2022-08-07T08:43:41;96486.06;;;18.29;67.00
23339;BME280;11841;49.368;20.962;2022-08-07T08:46:45;96474.50;;;18.28;67.87
23339;BME280;11841;49.368;20.962;2022-08-07T08:52:34;96478.97;;;18.39;66.68
23339;BME280;11841;49.368;20.962;2022-08-07T08:55:13;96486.88;;;18.46;65.22
23339;BME280;11841;49.368;20.962;2022-08-07T08:58:05;96488.19;;;18.43;63.99
23339;BME280;11841;49.368;20.962;2022-08-07T09:00:43;96481.78;;;18.44;63.98
23339;BME280;11841;49.368;20.962;2022-08-07T09:03:24;96483.38;;;18.45;62.75
23339;BME280;11841;49.368;20.962;2022-08-07T09:06:34;96486.13;;;18.50;64.16
23339;BME280;11841;49.368;20.962;2022-08-07T09:15:31;96484.59;;;18.54;63.30
23339;BME280;11841;49.368;20.962;2022-08-07T09:18:55;96480.25;;;18.53;62.38
23339;BME280;11841;49.368;20.962;2022-08-07T09:21:38;96478.72;;;18.57;63.51
23339;BME280;11841;49.368;20.962;2022-08-07T09:30:36;96469.00;;;18.94;62.64
23339;BME280;11841;49.368;20.962;2022-08-07T09:36:36;96464.09;;;19.13;63.33
23339;BME280;11841;49.368;20.962;2022-08-07T09:39:21;96468.03;;;19.27;62.42
23339;BME280;11841;49.368;20.962;2022-08-07T09:54:41;96462.69;;;19.05;60.65
23339;BME280;11841;49.368;20.962;2022-08-07T10:00:06;96448.84;;;19.18;60.67
23339;BME280;11841;49.368;20.962;2022-08-07T10:06:01;96447.91;;;19.30;60.42
23339;BME280;11841;49.368;20.962;2022-08-07T10:15:00;96449.84;;;19.12;60.43
23339;BME280;11841;49.368;20.962;2022-08-07T10:20:31;96453.09;;;19.14;57.38
23339;BME280;11841;49.368;20.962;2022-08-07T10:23:10;96434.72;;;19.06;57.19
23339;BME280;11841;49.368;20.962;2022-08-07T10:29:22;96438.91;;;19.19;58.43
23339;BME280;11841;49.368;20.962;2022-08-07T10:35:25;96427.44;;;19.28;58.02
23339;BME280;11841;49.368;20.962;2022-08-07T10:38:37;96414.66;;;19.36;59.41
23339;BME280;11841;49.368;20.962;2022-08-07T10:46:41;96419.03;;;19.47;58.78
23339;BME280;11841;49.368;20.962;2022-08-07T10:49:23;96410.91;;;19.42;59.76
23339;BME280;11841;49.368;20.962;2022-08-07T10:52:17;96405.03;;;19.45;59.42
23339;BME280;11841;49.368;20.962;2022-08-07T10:54:56;96408.50;;;19.40;59.30
23339;BME280;11841;49.368;20.962;2022-08-07T11:00:58;96419.97;;;19.31;58.11
23339;BME280;11841;49.368;20.962;2022-08-07T11:03:41;96415.88;;;19.28;58.84
23339;BME280;11841;49.368;20.962;2022-08-07T11:06:43;96412.63;;;19.26;58.06
23339;BME280;11841;49.368;20.962;2022-08-07T11:09:22;96410.25;;;19.30;58.85
23339;BME280;11841;49.368;20.962;2022-08-07T11:12:16;96424.41;;;19.47;58.90
23339;BME280;11841;49.368;20.962;2022-08-07T11:15:19;96410.19;;;19.24;57.20
23339;BME280;11841;49.368;20.962;2022-08-07T11:21:01;96413.44;;;19.26;57.93
23339;BME280;11841;49.368;20.962;2022-08-07T11:23:45;96399.13;;;19.43;59.05
23339;BME280;11841;49.368;20.962;2022-08-07T11:26:31;96390.69;;;19.66;58.88
23339;BME280;11841;49.368;20.962;2022-08-07T11:29:11;96389.72;;;19.77;58.71
23339;BME280;11841;49.368;20.962;2022-08-07T11:32:16;96391.38;;;19.83;59.51
23339;BME280;11841;49.368;20.962;2022-08-07T11:34:57;96388.50;;;19.94;59.82
23339;BME280;11841;49.368;20.962;2022-08-07T11:43:34;96375.34;;;20.39;56.99
23339;BME280;11841;49.368;20.962;2022-08-07T11:49:24;96375.47;;;20.18;58.82
23339;BME280;11841;49.368;20.962;2022-08-07T11:55:13;96379.59;;;20.30;59.09
23339;BME280;11841;49.368;20.962;2022-08-07T12:00:57;96387.97;;;19.97;57.64
23339;BME280;11841;49.368;20.962;2022-08-07T12:09:43;96370.94;;;20.23;57.66
23339;BME280;11841;49.368;20.962;2022-08-07T12:12:14;96375.03;;;20.31;57.11
23339;BME280;11841;49.368;20.962;2022-08-07T12:14:54;96378.03;;;20.39;56.21
23339;BME280;11841;49.368;20.962;2022-08-07T12:17:53;96368.59;;;20.37;54.90
23339;BME280;11841;49.368;20.962;2022-08-07T12:20:43;96359.97;;;20.40;55.37
23339;BME280;11841;49.368;20.962;2022-08-07T12:26:30;96361.66;;;20.51;55.16
23339;BME280;11841;49.368;20.962;2022-08-07T12:29:24;96347.06;;;20.42;55.63
23339;BME280;11841;49.368;20.962;2022-08-07T12:32:20;96340.66;;;20.48;54.82
23339;BME280;11841;49.368;20.962;2022-08-07T12:34:48;96350.91;;;20.56;55.00
23339;BME280;11841;49.368;20.962;2022-08-07T12:37:22;96343.91;;;20.65;54.92
23339;BME280;11841;49.368;20.962;2022-08-07T12:40:11;96346.56;;;20.55;54.53
23339;BME280;11841;49.368;20.962;2022-08-07T12:43:01;96340.19;;;20.71;54.92
23339;BME280;11841;49.368;20.962;2022-08-07T12:45:54;96338.31;;;20.77;54.46
23339;BME280;11841;49.368;20.962;2022-08-07T12:48:34;96347.97;;;20.68;54.97
23339;BME280;11841;49.368;20.962;2022-08-07T12:51:23;96323.75;;;20.78;55.32
23339;BME280;11841;49.368;20.962;2022-08-07T12:57:24;96325.13;;;20.85;55.25
23339;BME280;11841;49.368;20.962;2022-08-07T13:00:13;96327.03;;;20.90;54.56
23339;BME280;11841;49.368;20.962;2022-08-07T13:03:18;96342.66;;;20.88;56.00
23339;BME280;11841;49.368;20.962;2022-08-07T13:16:21;96328.06;;;20.79;56.71
23339;BME280;11841;49.368;20.962;2022-08-07T13:24:59;96315.41;;;20.84;56.54
23339;BME280;11841;49.368;20.962;2022-08-07T13:27:43;96318.13;;;20.94;56.33
23339;BME280;11841;49.368;20.962;2022-08-07T13:30:33;96317.56;;;20.87;55.30
23339;BME280;11841;49.368;20.962;2022-08-07T13:33:23;96323.28;;;21.01;55.13
23339;BME280;11841;49.368;20.962;2022-08-07T13:36:19;96325.47;;;21.09;54.90
23339;BME280;11841;49.368;20.962;2022-08-07T13:39:00;96320.63;;;21.16;55.17
23339;BME280;11841;49.368;20.962;2022-08-07T13:41:42;96313.34;;;21.16;55.55
23339;BME280;11841;49.368;20.962;2022-08-07T13:44:17;96312.81;;;21.19;55.74
23339;BME280;11841;49.368;20.962;2022-08-07T13:46:55;96298.53;;;21.19;55.51
23339;BME280;11841;49.368;20.962;2022-08-07T13:49:31;96301.47;;;21.07;54.76
23339;BME280;11841;49.368;20.962;2022-08-07T13:52:19;96300.41;;;21.08;54.94
23339;BME280;11841;49.368;20.962;2022-08-07T13:55:09;96300.94;;;21.10;55.19
23339;BME280;11841;49.368;20.962;2022-08-07T13:58:04;96294.47;;;21.31;55.65
23339;BME280;11841;49.368;20.962;2022-08-07T14:01:08;96301.50;;;21.47;55.30
23339;BME280;11841;49.368;20.962;2022-08-07T14:03:36;96296.38;;;21.51;54.87
23339;BME280;11841;49.368;20.962;2022-08-07T14:06:34;96284.19;;;21.63;55.59
23339;BME280;11841;49.368;20.962;2022-08-07T14:09:03;96277.22;;;21.47;54.24
23339;BME280;11841;49.368;20.962;2022-08-07T14:11:35;96297.16;;;21.21;54.17
23339;BME280;11841;49.368;20.962;2022-08-07T14:14:37;96292.31;;;21.08;54.65
23339;BME280;11841;49.368;20.962;2022-08-07T14:17:07;96284.75;;;21.15;55.61
23339;BME280;11841;49.368;20.962;2022-08-07T14:19:59;96292.59;;;21.32;55.32
23339;BME280;11841;49.368;20.962;2022-08-07T14:22:52;96279.66;;;21.19;54.05
23339;BME280;11841;49.368;20.962;2022-08-07T14:25:29;96274.53;;;21.12;54.79
23339;BME280;11841;49.368;20.962;2022-08-07T14:28:13;96276.69;;;21.15;54.53
23339;BME280;11841;49.368;20.962;2022-08-07T14:30:46;96272.88;;;21.26;55.47
23339;BME280;11841;49.368;20.962;2022-08-07T14:33:18;96266.97;;;21.39;54.20
23339;BME280;11841;49.368;20.962;2022-08-07T14:35:56;96266.41;;;21.52;54.89
23339;BME280;11841;49.368;20.962;2022-08-07T14:38:43;96263.97;;;21.61;54.40
23339;BME280;11841;49.368;20.962;2022-08-07T14:41:24;96270.19;;;21.56;53.42
23339;BME280;11841;49.368;20.962;2022-08-07T14:44:13;96272.09;;;21.51;54.20
23339;BME280;11841;49.368;20.962;2022-08-07T14:46:43;96267.75;;;21.50;54.25
23339;BME280;11841;49.368;20.962;2022-08-07T14:49:33;96270.97;;;21.57;53.58
23339;BME280;11841;49.368;20.962;2022-08-07T14:52:21;96267.50;;;21.46;53.60
23339;BME280;11841;49.368;20.962;2022-08-07T14:55:10;96274.53;;;21.37;53.28
23339;BME280;11841;49.368;20.962;2022-08-07T14:57:47;96270.75;;;21.28;52.88
23339;BME280;11841;49.368;20.962;2022-08-07T15:00:30;96266.44;;;21.27;53.67
23339;BME280;11841;49.368;20.962;2022-08-07T15:02:58;96258.34;;;21.32;54.13
23339;BME280;11841;49.368;20.962;2022-08-07T15:05:45;96268.84;;;21.44;53.21
23339;BME280;11841;49.368;20.962;2022-08-07T15:08:23;96263.19;;;21.30;52.97
23339;BME280;11841;49.368;20.962;2022-08-07T15:11:09;96254.00;;;21.26;53.80
23339;BME280;11841;49.368;20.962;2022-08-07T15:13:51;96250.25;;;21.37;55.33
23339;BME280;11841;49.368;20.962;2022-08-07T15:16:27;96248.88;;;21.45;53.82
23339;BME280;11841;49.368;20.962;2022-08-07T15:19:16;96249.16;;;21.38;53.71
23339;BME280;11841;49.368;20.962;2022-08-07T15:21:48;96254.81;;;21.42;54.27
23339;BME280;11841;49.368;20.962;2022-08-07T15:24:32;96255.63;;;21.52;54.25
23339;BME280;11841;49.368;20.962;2022-08-07T15:27:21;96254.00;;;21.62;54.25
23339;BME280;11841;49.368;20.962;2022-08-07T15:29:52;96253.44;;;21.65;53.64
23339;BME280;11841;49.368;20.962;2022-08-07T15:32:47;96255.03;;;21.76;53.75
23339;BME280;11841;49.368;20.962;2022-08-07T15:35:35;96255.03;;;21.76;52.87
23339;BME280;11841;49.368;20.962;2022-08-07T15:38:28;96245.88;;;21.67;52.18
23339;BME280;11841;49.368;20.962;2022-08-07T15:41:16;96258.28;;;21.68;52.47
23339;BME280;11841;49.368;20.962;2022-08-07T15:44:06;96252.63;;;21.69;51.87
23339;BME280;11841;49.368;20.962;2022-08-07T15:46:36;96250.75;;;21.59;52.21
23339;BME280;11841;49.368;20.962;2022-08-07T15:49:28;96241.56;;;21.60;52.30
23339;BME280;11841;49.368;20.962;2022-08-07T15:52:19;96248.03;;;21.70;52.59